Time;durP1;ratioP1;P1;durP2;ratioP2;P2;SDS_P1;SDS_P2;PMS_P1;PMS_P2;Temp;Humidity;BMP_temperature;BMP_pressure;BME280_temperature;BME280_humidity;BME280_pressure;Samples;Min_cycle;Max_cycle;Signal;HPM_P1;HPM_P2
2024/02/14 00:00:24;;;;;;;8.95;6.20;;;3.40;99.80;;;;;;5048225;28;20624;-75
2024/02/14 00:02:51;;;;;;;6.63;5.90;;;3.40;99.90;;;;;;5046102;28;20221;-75
2024/02/14 00:05:19;;;;;;;8.05;5.60;;;3.40;99.90;;;;;;5045498;28;20199;-75
2024/02/14 00:07:46;;;;;;;5.15;4.65;;;4.20;99.90;;;;;;5049650;28;20231;-75
2024/02/14 00:10:13;;;;;;;5.65;4.55;;;3.60;99.90;;;;;;5049007;28;20199;-75
2024/02/14 00:12:40;;;;;;;7.72;5.30;;;3.60;99.90;;;;;;5049361;28;20261;-75
2024/02/14 00:15:08;;;;;;;8.43;4.85;;;3.60;99.90;;;;;;5044520;28;20348;-75
2024/02/14 00:17:35;;;;;;;5.85;4.85;;;3.60;99.90;;;;;;5046168;28;20200;-75
2024/02/14 00:20:03;;;;;;;9.60;6.00;;;4.00;99.90;;;;;;5049626;28;20203;-75
2024/02/14 00:22:32;;;;;;;7.00;4.78;;;3.70;99.90;;;;;;5050314;28;20199;-75
2024/02/14 00:24:59;;;;;;;8.00;5.88;;;3.60;99.90;;;;;;5043572;28;20539;-75
2024/02/14 00:27:27;;;;;;;6.28;5.07;;;3.90;99.90;;;;;;5039439;28;20208;-75
2024/02/14 00:29:54;;;;;;;6.55;4.55;;;3.60;99.90;;;;;;5048239;28;20207;-75
2024/02/14 00:32:20;;;;;;;5.35;4.63;;;3.70;99.90;;;;;;5049178;28;20199;-75
2024/02/14 00:34:47;;;;;;;5.35;4.85;;;3.70;99.90;;;;;;5048233;28;20341;-75
2024/02/14 00:37:14;;;;;;;5.50;4.43;;;3.80;99.90;;;;;;5048643;28;20281;-75
2024/02/14 00:39:42;;;;;;;4.40;4.00;;;3.80;99.90;;;;;;5049284;28;20211;-75
2024/02/14 00:42:09;;;;;;;5.82;4.45;;;3.80;99.90;;;;;;5031861;28;20192;-75
2024/02/14 00:44:36;;;;;;;5.55;3.92;;;3.90;99.90;;;;;;5045438;28;20253;-75
2024/02/14 00:47:03;;;;;;;4.55;4.15;;;3.90;99.90;;;;;;5048864;28;20298;-75
2024/02/14 00:49:30;;;;;;;4.63;4.15;;;3.90;99.90;;;;;;5048848;28;20227;-75
2024/02/14 00:51:57;;;;;;;5.40;4.18;;;4.10;99.90;;;;;;5049602;28;20664;-75
2024/02/14 00:54:24;;;;;;;5.10;4.20;;;4.10;99.90;;;;;;5044492;28;20207;-75
2024/02/14 00:56:52;;;;;;;4.95;4.05;;;4.10;99.90;;;;;;5043880;28;20255;-75
2024/02/14 00:59:18;;;;;;;6.78;4.57;;;4.10;99.90;;;;;;5046151;28;20196;-75
2024/02/14 01:01:45;;;;;;;4.90;4.40;;;4.20;99.90;;;;;;5041653;28;20200;-75
2024/02/14 01:04:12;;;;;;;5.85;4.18;;;4.30;99.90;;;;;;5044623;28;20224;-75
2024/02/14 01:06:39;;;;;;;6.47;4.75;;;4.30;99.90;;;;;;5046377;28;20208;-75
2024/02/14 01:09:06;;;;;;;4.53;4.13;;;4.20;99.90;;;;;;5048093;28;20309;-75
2024/02/14 01:11:32;;;;;;;6.63;4.25;;;4.30;99.90;;;;;;5049044;28;20273;-75
2024/02/14 01:14:01;;;;;;;6.50;3.75;;;4.30;99.90;;;;;;5048135;28;20207;-75
2024/02/14 01:16:28;;;;;;;5.88;4.20;;;4.30;99.90;;;;;;5049425;28;20298;-75
2024/02/14 01:18:55;;;;;;;5.60;4.43;;;4.70;99.90;;;;;;5049208;28;20317;-76
2024/02/14 01:21:22;;;;;;;5.18;4.47;;;4.40;99.90;;;;;;5049200;28;20279;-75
2024/02/14 01:23:48;;;;;;;7.20;5.05;;;4.40;99.90;;;;;;5047686;28;20681;-76
2024/02/14 01:26:15;;;;;;;7.15;5.22;;;4.60;99.90;;;;;;5049051;28;20218;-75
2024/02/14 01:28:44;;;;;;;4.65;4.15;;;4.60;99.90;;;;;;5048270;28;20228;-75
2024/02/14 01:31:13;;;;;;;6.75;4.68;;;4.50;99.90;;;;;;5048260;28;20208;-75
2024/02/14 01:33:40;;;;;;;5.00;4.50;;;4.50;99.90;;;;;;5047833;28;20206;-75
2024/02/14 01:36:07;;;;;;;5.82;4.75;;;4.60;99.90;;;;;;5048155;28;20234;-76
2024/02/14 01:38:35;;;;;;;5.70;4.47;;;4.60;99.90;;;;;;5048591;28;20207;-75
2024/02/14 01:41:03;;;;;;;5.10;3.95;;;4.70;99.90;;;;;;5045066;28;20690;-75
2024/02/14 01:43:30;;;;;;;4.50;4.10;;;4.70;99.90;;;;;;5048603;28;20199;-75
2024/02/14 01:46:04;;;;;;;3.80;3.50;;;4.60;99.90;;;;;;5048675;28;21899;-75
2024/02/14 01:48:33;;;;;;;5.10;3.63;;;4.70;99.90;;;;;;5044054;28;20762;-75
2024/02/14 01:51:01;;;;;;;5.35;4.00;;;4.60;99.90;;;;;;5048694;28;20199;-75
2024/02/14 01:53:29;;;;;;;5.20;4.35;;;4.70;99.90;;;;;;5047916;28;20213;-75
2024/02/14 01:55:57;;;;;;;4.05;3.65;;;4.70;99.90;;;;;;5048470;28;20666;-76
2024/02/14 01:58:24;;;;;;;8.55;5.85;;;4.70;99.90;;;;;;5047950;28;20199;-75
2024/02/14 02:00:55;;;;;;;4.32;3.90;;;4.70;99.90;;;;;;5047975;28;20618;-76
2024/02/14 02:03:23;;;;;;;4.10;3.70;;;4.70;99.90;;;;;;5047354;28;20274;-75
2024/02/14 02:05:51;;;;;;;4.70;3.70;;;4.70;99.90;;;;;;5048681;28;20203;-75
2024/02/14 02:08:18;;;;;;;4.35;3.95;;;4.80;99.90;;;;;;5047720;28;20764;-75
2024/02/14 02:10:45;;;;;;;4.65;4.20;;;4.90;99.90;;;;;;5046744;28;20196;-75
2024/02/14 02:13:15;;;;;;;6.45;3.88;;;4.80;99.90;;;;;;5041258;28;20232;-75
2024/02/14 02:15:45;;;;;;;4.15;3.75;;;4.80;99.90;;;;;;5047619;28;20560;-75
2024/02/14 02:18:13;;;;;;;5.43;3.45;;;4.90;99.90;;;;;;5042401;28;20211;-75
2024/02/14 02:20:42;;;;;;;6.30;4.00;;;4.90;99.90;;;;;;5047097;28;20211;-75
2024/02/14 02:23:14;;;;;;;4.05;3.63;;;5.00;99.90;;;;;;5045192;28;20188;-75
2024/02/14 02:25:41;;;;;;;4.70;4.30;;;5.10;99.90;;;;;;5046890;28;20585;-75
2024/02/14 02:28:09;;;;;;;4.20;3.78;;;5.00;99.90;;;;;;5047719;28;20204;-76
2024/02/14 02:30:37;;;;;;;4.97;4.00;;;5.00;99.90;;;;;;5047602;28;20802;-75
2024/02/14 02:33:07;;;;;;;7.53;4.20;;;5.10;99.90;;;;;;5047090;28;20367;-76
2024/02/14 02:35:35;;;;;;;5.30;4.07;;;5.00;99.90;;;;;;5046637;28;20200;-75
2024/02/14 02:38:02;;;;;;;5.88;3.97;;;5.00;99.90;;;;;;5046796;28;20265;-75
2024/02/14 02:40:31;;;;;;;4.10;3.65;;;5.00;99.90;;;;;;5047786;28;20303;-75
2024/02/14 02:43:00;;;;;;;5.28;4.30;;;5.00;99.90;;;;;;5042741;28;20211;-75
2024/02/14 02:45:28;;;;;;;4.53;4.13;;;5.00;99.90;;;;;;5038858;28;20277;-75
2024/02/14 02:47:56;;;;;;;6.45;3.85;;;5.00;99.90;;;;;;5048071;28;20701;-75
2024/02/14 02:50:25;;;;;;;6.40;4.25;;;5.00;99.90;;;;;;5047246;28;20226;-75
2024/02/14 02:52:54;;;;;;;4.65;4.03;;;5.00;99.90;;;;;;5044892;28;21223;-75
2024/02/14 02:55:23;;;;;;;5.20;4.00;;;5.00;99.90;;;;;;5042823;28;20200;-75
2024/02/14 02:57:52;;;;;;;4.47;3.85;;;5.30;99.90;;;;;;5039947;28;20266;-75
2024/02/14 03:00:21;;;;;;;4.97;4.57;;;5.00;99.90;;;;;;5046496;28;20579;-75
2024/02/14 03:02:48;;;;;;;7.30;4.10;;;5.10;99.90;;;;;;5044726;28;20257;-75
2024/02/14 03:05:18;;;;;;;6.32;4.10;;;5.10;99.90;;;;;;5044842;28;20655;-75
2024/02/14 03:07:47;;;;;;;5.18;3.80;;;5.00;99.90;;;;;;5051695;28;20226;-76
2024/02/14 03:10:17;;;;;;;4.50;4.10;;;5.70;99.90;;;;;;5052128;28;20232;-75
2024/02/14 03:12:47;;;;;;;4.45;4.05;;;5.10;99.90;;;;;;5050361;28;20200;-75
2024/02/14 03:15:16;;;;;;;3.60;3.30;;;5.10;99.90;;;;;;5051156;28;20230;-75
2024/02/14 03:17:43;;;;;;;3.92;3.63;;;5.10;99.90;;;;;;5050457;28;20420;-75
2024/02/14 03:20:13;;;;;;;8.25;3.97;;;5.10;99.90;;;;;;5050784;28;20287;-75
2024/02/14 03:22:44;;;;;;;5.00;3.28;;;5.00;99.90;;;;;;5050692;28;20591;-75
2024/02/14 03:25:15;;;;;;;3.97;3.35;;;5.10;99.90;;;;;;5050208;28;20200;-75
2024/02/14 03:27:42;;;;;;;6.97;3.35;;;6.10;99.90;;;;;;5050769;28;20286;-75
2024/02/14 03:30:12;;;;;;;4.45;3.25;;;5.00;99.90;;;;;;5049994;28;20262;-75
2024/02/14 03:32:41;;;;;;;4.35;3.33;;;5.10;99.90;;;;;;5050527;28;20215;-75
2024/02/14 03:35:10;;;;;;;3.67;3.25;;;5.00;99.90;;;;;;5050899;28;20203;-75
2024/02/14 03:37:39;;;;;;;4.25;3.50;;;5.00;99.90;;;;;;5044859;28;20282;-75
2024/02/14 03:40:07;;;;;;;6.05;3.80;;;5.00;99.90;;;;;;5048810;28;20195;-75
2024/02/14 03:42:35;;;;;;;5.47;3.17;;;4.90;99.90;;;;;;5050655;28;20550;-75
2024/02/14 03:45:05;;;;;;;5.60;3.45;;;5.80;99.90;;;;;;5050270;28;20204;-75
2024/02/14 03:47:34;;;;;;;7.80;4.07;;;4.80;99.90;;;;;;5050666;28;20215;-75
2024/02/14 03:50:04;;;;;;;4.10;3.60;;;4.80;99.90;;;;;;5049991;28;20250;-75
2024/02/14 03:52:32;;;;;;;3.95;3.65;;;6.90;99.90;;;;;;5050379;28;20223;-76
2024/02/14 03:54:59;;;;;;;4.10;3.75;;;4.80;99.90;;;;;;5042898;28;20290;-75
2024/02/14 03:57:28;;;;;;;6.05;4.00;;;4.80;99.90;;;;;;5051136;28;20192;-75
2024/02/14 03:59:55;;;;;;;4.50;4.03;;;4.70;99.90;;;;;;5047831;28;20247;-76
2024/02/14 04:02:23;;;;;;;4.88;4.30;;;4.80;99.90;;;;;;5050737;28;20196;-75
2024/02/14 04:04:50;;;;;;;6.78;4.32;;;4.80;99.90;;;;;;5044208;28;20197;-75
2024/02/14 04:07:18;;;;;;;4.60;4.20;;;4.80;99.90;;;;;;5049968;28;20591;-75
2024/02/14 04:09:45;;;;;;;5.50;3.33;;;4.90;99.90;;;;;;5045494;28;20226;-75
2024/02/14 04:12:12;;;;;;;6.95;3.72;;;4.90;99.90;;;;;;5047486;28;20208;-75
2024/02/14 04:14:39;;;;;;;3.75;3.42;;;4.90;99.90;;;;;;5045379;28;20200;-75
2024/02/14 04:17:07;;;;;;;3.38;2.53;;;5.00;99.90;;;;;;5047796;28;20630;-75
2024/02/14 04:19:34;;;;;;;3.42;3.13;;;5.00;99.90;;;;;;5049236;28;20295;-75
2024/02/14 04:22:01;;;;;;;3.13;2.92;;;4.90;99.90;;;;;;5050073;28;20657;-75
2024/02/14 04:24:29;;;;;;;3.83;3.40;;;4.90;99.90;;;;;;5048872;28;20204;-75
2024/02/14 04:26:56;;;;;;;3.58;3.30;;;5.00;99.90;;;;;;5048366;28;21091;-75
2024/02/14 04:29:24;;;;;;;6.78;3.03;;;5.00;99.90;;;;;;5049131;28;20227;-75
2024/02/14 04:31:52;;;;;;;5.38;2.72;;;4.60;99.90;;;;;;5048499;28;20225;-75
2024/02/14 04:34:19;;;;;;;3.30;3.00;;;5.00;99.90;;;;;;5047240;28;20664;-75
2024/02/14 04:36:46;;;;;;;3.17;2.88;;;5.00;99.90;;;;;;5048731;28;20192;-75
2024/02/14 04:39:13;;;;;;;5.22;3.67;;;4.90;99.90;;;;;;5048921;28;20264;-76
2024/02/14 04:41:41;;;;;;;4.65;3.03;;;5.00;99.90;;;;;;5049292;28;20214;-75
2024/02/14 04:44:08;;;;;;;3.10;2.90;;;5.00;99.90;;;;;;5047781;28;20200;-75
2024/02/14 04:46:35;;;;;;;3.00;2.63;;;5.00;99.90;;;;;;5049701;28;20238;-76
2024/02/14 04:49:03;;;;;;;4.45;3.20;;;5.00;99.90;;;;;;5047786;28;20251;-76
2024/02/14 04:51:30;;;;;;;2.97;2.53;;;5.00;99.90;;;;;;5054828;28;20226;-75
2024/02/14 04:53:58;;;;;;;12.10;3.55;;;5.00;99.90;;;;;;5051112;28;20646;-75
2024/02/14 04:56:25;;;;;;;3.35;3.05;;;5.10;99.90;;;;;;5050306;28;20199;-75
2024/02/14 04:58:53;;;;;;;4.72;3.22;;;5.10;99.90;;;;;;5055701;28;20213;-75
2024/02/14 05:01:20;;;;;;;4.00;3.50;;;5.10;99.90;;;;;;5066046;28;20207;-75
2024/02/14 05:03:48;;;;;;;5.38;3.15;;;5.20;99.90;;;;;;5054511;28;20199;-75
2024/02/14 05:06:14;;;;;;;6.75;3.72;;;5.30;99.90;;;;;;5049495;28;20200;-75
2024/02/14 05:08:41;;;;;;;3.60;2.97;;;5.40;99.90;;;;;;5048579;28;20733;-76
2024/02/14 05:11:08;;;;;;;3.53;3.22;;;5.20;99.90;;;;;;5045281;28;20192;-76
2024/02/14 05:13:35;;;;;;;5.50;3.40;;;5.30;99.90;;;;;;5047069;28;20291;-76
2024/02/14 05:16:06;;;;;;;3.35;3.05;;;5.80;99.90;;;;;;5048143;28;20253;-76
2024/02/14 05:18:33;;;;;;;5.40;3.30;;;5.40;99.90;;;;;;5048655;28;20188;-75
2024/02/14 05:20:59;;;;;;;3.85;3.50;;;5.50;99.90;;;;;;5048502;28;20204;-75
2024/02/14 05:23:26;;;;;;;3.35;3.05;;;5.00;99.90;;;;;;5048400;28;20196;-75
2024/02/14 05:25:53;;;;;;;4.60;3.20;;;5.50;99.90;;;;;;5045044;28;20210;-75
2024/02/14 05:28:20;;;;;;;3.30;2.70;;;5.50;99.90;;;;;;5048030;28;20196;-75
2024/02/14 05:30:47;;;;;;;3.40;3.10;;;5.70;99.90;;;;;;5048904;28;20228;-75
2024/02/14 05:33:15;;;;;;;8.02;3.13;;;5.50;99.90;;;;;;5043382;28;20635;-75
2024/02/14 05:35:42;;;;;;;3.70;3.05;;;5.60;99.90;;;;;;5044886;28;20204;-75
2024/02/14 05:38:09;;;;;;;6.22;3.10;;;5.70;99.90;;;;;;5048578;28;20204;-75
2024/02/14 05:40:39;;;;;;;3.60;3.10;;;5.60;99.70;;;;;;5046112;28;20203;-76
2024/02/14 05:43:07;;;;;;;6.03;2.90;;;5.60;99.50;;;;;;5041980;28;20196;-75
2024/02/14 05:45:34;;;;;;;2.97;2.60;;;5.60;99.30;;;;;;5045531;28;20196;-75
2024/02/14 05:48:00;;;;;;;3.30;2.90;;;5.60;99.40;;;;;;5048870;28;20195;-75
2024/02/14 05:50:29;;;;;;;4.82;2.75;;;5.50;99.90;;;;;;5048168;28;20226;-75
2024/02/14 05:52:57;;;;;;;2.95;2.75;;;5.50;99.90;;;;;;5047937;28;20204;-76
2024/02/14 05:55:24;;;;;;;3.10;2.90;;;5.50;99.80;;;;;;5048241;28;20210;-75
2024/02/14 05:57:51;;;;;;;3.58;2.92;;;5.50;99.50;;;;;;5049139;28;20204;-75
2024/02/14 06:00:20;;;;;;;2.88;2.67;;;5.50;99.80;;;;;;5047140;28;20664;-75
2024/02/14 06:02:47;;;;;;;3.58;2.72;;;5.50;99.70;;;;;;5047859;28;20231;-76
2024/02/14 06:05:14;;;;;;;3.97;3.10;;;5.50;99.60;;;;;;5048509;28;20688;-75
2024/02/14 06:07:44;;;;;;;4.68;3.03;;;5.50;99.70;;;;;;5047550;28;20243;-75
2024/02/14 06:10:12;;;;;;;2.90;2.70;;;5.50;99.80;;;;;;5048366;28;20234;-75
2024/02/14 06:12:40;;;;;;;4.57;2.90;;;5.60;99.60;;;;;;5048065;28;20214;-76
2024/02/14 06:15:08;;;;;;;4.38;3.63;;;5.30;99.90;;;;;;5038939;28;20258;-75
2024/02/14 06:17:35;;;;;;;4.50;2.60;;;5.60;99.50;;;;;;5047468;28;20650;-75
2024/02/14 06:20:05;;;;;;;4.13;2.33;;;5.60;99.50;;;;;;5046931;28;20203;-75
2024/02/14 06:22:33;;;;;;;4.57;2.75;;;5.70;99.70;;;;;;5046956;28;20203;-75
2024/02/14 06:25:04;;;;;;;3.85;3.25;;;5.60;99.60;;;;;;5043615;28;20204;-75
2024/02/14 06:27:32;;;;;;;3.40;3.10;;;5.60;99.70;;;;;;5043710;28;20204;-73
2024/02/14 06:29:59;;;;;;;2.67;2.47;;;5.90;99.60;;;;;;5043739;28;20239;-74
2024/02/14 06:32:26;;;;;;;3.85;2.90;;;5.50;99.90;;;;;;5038797;28;20201;-72
2024/02/14 06:34:53;;;;;;;4.03;3.13;;;5.50;99.80;;;;;;5045096;28;20202;-73
2024/02/14 06:37:20;;;;;;;2.75;2.55;;;5.60;99.80;;;;;;5048102;28;20195;-76
2024/02/14 06:39:48;;;;;;;3.88;3.30;;;5.70;99.90;;;;;;5046135;28;20204;-78
2024/02/14 06:42:16;;;;;;;4.07;2.95;;;5.60;99.80;;;;;;5039367;28;20204;-78
2024/02/14 06:44:43;;;;;;;3.20;2.72;;;5.60;99.80;;;;;;5046313;28;20204;-78
2024/02/14 06:47:09;;;;;;;2.60;2.20;;;5.60;99.90;;;;;;5047374;28;20567;-75
2024/02/14 06:49:36;;;;;;;4.45;2.97;;;5.60;99.90;;;;;;5046512;28;20228;-76
2024/02/14 06:52:03;;;;;;;3.17;2.80;;;5.70;99.80;;;;;;5047061;28;20199;-75
2024/02/14 06:54:30;;;;;;;4.05;2.35;;;5.70;99.80;;;;;;5046884;28;20652;-75
2024/02/14 06:56:57;;;;;;;3.03;2.70;;;5.50;99.90;;;;;;5046756;28;20569;-75
2024/02/14 06:59:26;;;;;;;3.72;2.78;;;5.50;99.90;;;;;;5045328;28;20888;-76
2024/02/14 07:01:54;;;;;;;3.53;2.40;;;5.70;99.60;;;;;;5046858;28;20204;-76
2024/02/14 07:04:25;;;;;;;3.10;2.80;;;5.70;99.40;;;;;;5046771;28;20200;-76
2024/02/14 07:06:52;;;;;;;2.60;2.40;;;6.10;99.70;;;;;;5046232;28;20554;-77
2024/02/14 07:09:19;;;;;;;4.07;2.83;;;5.80;99.40;;;;;;5041604;28;20201;-76
2024/02/14 07:11:46;;;;;;;4.32;2.85;;;5.90;99.40;;;;;;5043295;28;20568;-78
2024/02/14 07:14:13;;;;;;;3.50;3.10;;;5.80;99.60;;;;;;5046379;28;20192;-80
2024/02/14 07:16:42;;;;;;;3.25;2.22;;;5.80;99.60;;;;;;5044869;28;20583;-79
2024/02/14 07:19:08;;;;;;;3.72;2.40;;;5.80;99.70;;;;;;5046964;28;20554;-80
2024/02/14 07:21:37;;;;;;;2.67;2.00;;;5.90;99.90;;;;;;5043595;28;20617;-78
2024/02/14 07:24:04;;;;;;;4.50;2.63;;;5.90;99.60;;;;;;5046117;28;20207;-77
2024/02/14 07:26:31;;;;;;;3.17;2.25;;;5.90;99.50;;;;;;5039890;28;20298;-78
2024/02/14 07:28:58;;;;;;;2.03;1.90;;;5.90;99.90;;;;;;5046386;28;20198;-77
2024/02/14 07:31:29;;;;;;;1.98;1.88;;;6.40;99.40;;;;;;5042560;28;20632;-77
2024/02/14 07:33:57;;;;;;;2.15;1.85;;;6.20;99.10;;;;;;5042853;28;20200;-77
2024/02/14 07:36:24;;;;;;;2.22;1.88;;;6.10;99.90;;;;;;5045238;28;20196;-84
2024/02/14 07:38:51;;;;;;;2.13;1.88;;;6.20;98.90;;;;;;5044322;28;20204;-79
2024/02/14 07:41:17;;;;;;;2.42;2.22;;;6.30;99.90;;;;;;5041243;28;20710;-73
2024/02/14 07:43:44;;;;;;;3.78;2.22;;;;;;;;;;5037865;28;20704;-80
2024/02/14 07:46:12;;;;;;;3.20;2.13;;;6.40;98.80;;;;;;5045027;28;20203;-79
2024/02/14 07:48:40;;;;;;;2.22;1.80;;;6.40;98.90;;;;;;5038179;28;20208;-78
2024/02/14 07:51:09;;;;;;;2.03;1.83;;;6.50;98.60;;;;;;5044830;28;20281;-78
2024/02/14 07:53:36;;;;;;;2.28;1.60;;;6.50;98.90;;;;;;5047918;28;20212;-78
2024/02/14 07:56:03;;;;;;;2.20;1.65;;;6.60;99.00;;;;;;5049695;28;20207;-78
2024/02/14 07:58:30;;;;;;;4.43;2.37;;;6.60;99.60;;;;;;5045460;28;20684;-78
2024/02/14 08:00:57;;;;;;;1.53;1.40;;;6.90;99.50;;;;;;5043229;28;20646;-78
2024/02/14 08:03:24;;;;;;;2.90;2.53;;;6.90;98.80;;;;;;5049888;28;20638;-78
2024/02/14 08:05:51;;;;;;;2.60;1.70;;;7.00;98.80;;;;;;5050806;28;21155;-78
2024/02/14 08:08:21;;;;;;;1.52;1.23;;;7.90;99.10;;;;;;5050286;28;20641;-78
2024/02/14 08:10:47;;;;;;;3.10;1.57;;;7.10;99.90;;;;;;5048445;28;20281;-78
2024/02/14 08:13:16;;;;;;;2.30;1.67;;;7.10;98.60;;;;;;5042741;28;21348;-78
2024/02/14 08:15:43;;;;;;;1.40;1.30;;;7.20;98.60;;;;;;5049461;28;20666;-78
2024/02/14 08:18:10;;;;;;;2.27;2.07;;;7.30;98.60;;;;;;5049947;28;21202;-79
2024/02/14 08:20:36;;;;;;;1.87;1.27;;;7.40;98.30;;;;;;5049928;28;20670;-78
2024/02/14 08:23:03;;;;;;;2.10;1.90;;;7.40;98.00;;;;;;5049137;28;21111;-78
2024/02/14 08:25:32;;;;;;;1.90;1.47;;;7.80;99.90;;;;;;5049329;28;20633;-78
2024/02/14 08:27:58;;;;;;;3.90;1.47;;;7.60;97.70;;;;;;5049958;28;20661;-79
2024/02/14 08:30:25;;;;;;;2.10;1.50;;;7.70;97.60;;;;;;5049319;28;20669;-78
2024/02/14 08:32:52;;;;;;;2.00;1.90;;;7.80;99.90;;;;;;5048181;28;20636;-78
2024/02/14 08:35:19;;;;;;;8.27;1.70;;;7.80;97.50;;;;;;5049094;28;20645;-78
2024/02/14 08:37:46;;;;;;;1.53;1.43;;;8.20;99.90;;;;;;5045434;28;20622;-78
2024/02/14 08:40:13;;;;;;;1.77;1.10;;;8.00;99.90;;;;;;5048265;28;20804;-80
2024/02/14 08:42:41;;;;;;;1.87;1.27;;;8.10;97.30;;;;;;5049192;28;21591;-79
2024/02/14 08:45:10;;;;;;;2.50;2.07;;;8.10;97.30;;;;;;5048388;28;20623;-78
2024/02/14 08:47:37;;;;;;;1.83;1.30;;;8.30;97.20;;;;;;5049556;28;20637;-81
2024/02/14 08:50:05;;;;;;;2.30;1.77;;;8.40;97.10;;;;;;5047861;28;20627;-75
2024/02/14 08:52:32;;;;;;;2.03;1.90;;;8.40;96.90;;;;;;5048570;28;20738;-78
2024/02/14 08:54:59;;;;;;;3.53;1.87;;;8.40;96.90;;;;;;5047384;28;20630;-75
2024/02/14 08:57:26;;;;;;;3.90;1.70;;;8.50;96.80;;;;;;5044133;28;20654;-80
2024/02/14 08:59:54;;;;;;;1.70;1.43;;;8.50;96.70;;;;;;5044018;28;20685;-81
2024/02/14 09:02:22;;;;;;;4.50;1.73;;;8.50;97.00;;;;;;5047264;28;20635;-82
2024/02/14 09:04:49;;;;;;;2.20;2.00;;;10.40;99.90;;;;;;5042735;28;20639;-81
2024/02/14 09:07:16;;;;;;;2.03;1.90;;;8.60;97.00;;;;;;5046373;28;20638;-81
2024/02/14 09:09:43;;;;;;;1.80;1.70;;;8.50;99.90;;;;;;5039802;28;20641;-81
2024/02/14 09:12:10;;;;;;;2.40;2.00;;;8.70;96.70;;;;;;5044802;28;20663;-81
2024/02/14 09:14:37;;;;;;;2.23;1.70;;;8.70;96.80;;;;;;5039039;28;20622;-81
2024/02/14 09:17:05;;;;;;;2.50;2.13;;;9.20;96.90;;;;;;5040416;28;20626;-81
2024/02/14 09:19:32;;;;;;;1.70;1.53;;;8.70;99.90;;;;;;5039237;28;20718;-81
2024/02/14 09:21:59;;;;;;;2.13;1.80;;;8.90;96.70;;;;;;5039937;28;20645;-81
2024/02/14 09:24:26;;;;;;;3.27;1.73;;;9.00;96.50;;;;;;5047335;28;21095;-81
2024/02/14 09:26:53;;;;;;;1.73;1.57;;;8.80;99.90;;;;;;5047697;28;20636;-81
2024/02/14 09:29:20;;;;;;;6.83;2.20;;;8.90;96.70;;;;;;5047873;28;21089;-81
2024/02/14 09:31:48;;;;;;;4.10;2.03;;;9.00;96.90;;;;;;5045890;28;20681;-81
2024/02/14 09:34:18;;;;;;;1.27;1.17;;;9.10;99.90;;;;;;5041707;28;21243;-81
2024/02/14 09:36:44;;;;;;;3.50;1.63;;;9.10;96.50;;;;;;5040948;28;20631;-81
2024/02/14 09:39:11;;;;;;;8.00;1.93;;;9.10;96.60;;;;;;5043245;28;20655;-81
2024/02/14 09:41:41;;;;;;;2.77;1.67;;;9.20;96.60;;;;;;5045348;28;20627;-81
2024/02/14 09:44:08;;;;;;;5.30;1.70;;;9.50;99.90;;;;;;5039708;28;20631;-81
2024/02/14 09:46:37;;;;;;;1.50;1.40;;;9.30;99.90;;;;;;5047378;28;20641;-81
2024/02/14 09:49:04;;;;;;;3.70;2.00;;;9.40;96.80;;;;;;5047443;28;20619;-81
2024/02/14 09:51:33;;;;;;;2.10;1.90;;;9.50;96.70;;;;;;5048226;28;20671;-81
2024/02/14 09:54:01;;;;;;;1.43;1.33;;;9.50;97.20;;;;;;5047942;28;20665;-81
2024/02/14 09:56:29;;;;;;;2.20;1.70;;;9.40;96.30;;;;;;5047545;28;20620;-81
2024/02/14 09:58:56;;;;;;;3.40;1.73;;;9.90;99.70;;;;;;5047222;28;20629;-81
2024/02/14 10:01:24;;;;;;;3.20;1.70;;;9.80;96.60;;;;;;5039462;28;20643;-81
2024/02/14 10:03:51;;;;;;;3.53;1.53;;;9.90;96.70;;;;;;5044509;28;20628;-81
2024/02/14 10:06:19;;;;;;;3.87;1.60;;;9.90;97.00;;;;;;5048286;28;20644;-81
2024/02/14 10:08:48;;;;;;;5.23;1.73;;;9.90;97.10;;;;;;5047403;28;21168;-81
2024/02/14 10:11:17;;;;;;;3.37;1.40;;;10.10;99.90;;;;;;5047453;28;20703;-81
2024/02/14 10:13:47;;;;;;;2.00;1.60;;;10.10;99.90;;;;;;5046649;28;21358;-81
2024/02/14 10:16:14;;;;;;;1.33;1.23;;;10.20;96.60;;;;;;5047926;28;20986;-81
2024/02/14 10:18:40;;;;;;;2.27;1.33;;;10.30;96.90;;;;;;5048042;28;20640;-81
2024/02/14 10:21:09;;;;;;;1.17;1.10;;;10.40;96.90;;;;;;5047688;28;20639;-81
2024/02/14 10:23:36;;;;;;;2.63;1.53;;;10.50;97.00;;;;;;5046942;28;20757;-81
2024/02/14 10:26:05;;;;;;;0.80;0.80;;;10.50;97.10;;;;;;5047110;28;20649;-81
2024/02/14 10:28:34;;;;;;;1.33;1.23;;;10.50;97.00;;;;;;5048024;28;20618;-81
2024/02/14 10:31:01;;;;;;;2.77;1.60;;;10.30;96.80;;;;;;5047558;28;20661;-81
2024/02/14 10:33:29;;;;;;;2.30;1.10;;;10.60;97.00;;;;;;5047670;28;20626;-82
2024/02/14 10:35:57;;;;;;;1.40;1.20;;;10.60;96.90;;;;;;5047179;28;20629;-81
2024/02/14 10:38:26;;;;;;;4.60;1.37;;;10.70;97.30;;;;;;5047356;28;20733;-81
2024/02/14 10:40:54;;;;;;;1.40;1.30;;;10.80;99.90;;;;;;5047257;28;20622;-81
2024/02/14 10:43:22;;;;;;;1.33;0.90;;;10.90;97.00;;;;;;5047483;28;20618;-82
2024/02/14 10:45:50;;;;;;;1.40;1.30;;;10.20;99.90;;;;;;5047922;28;20637;-84
2024/02/14 10:48:18;;;;;;;1.60;1.40;;;11.00;97.20;;;;;;5046887;28;20630;-82
2024/02/14 10:50:47;;;;;;;1.53;1.20;;;11.10;97.20;;;;;;5046648;28;20698;-82
2024/02/14 10:53:15;;;;;;;1.60;1.50;;;10.90;99.90;;;;;;5046083;28;20717;-82
2024/02/14 10:55:47;;;;;;;1.70;1.20;;;11.10;97.30;;;;;;5046196;28;20975;-82
2024/02/14 10:58:14;;;;;;;1.30;1.20;;;;;;;;;;5044176;28;21193;-82
2024/02/14 11:00:43;;;;;;;1.27;1.00;;;11.30;99.90;;;;;;5045078;28;20657;-81
2024/02/14 11:03:11;;;;;;;2.17;1.97;;;11.40;97.30;;;;;;5038486;28;20641;-82
2024/02/14 11:05:46;;;;;;;1.20;1.10;;;11.60;99.90;;;;;;5046873;28;20627;-82
2024/02/14 11:08:15;;;;;;;2.10;1.03;;;11.50;97.20;;;;;;5044190;28;20627;-79
2024/02/14 11:10:43;;;;;;;2.30;1.20;;;;;;;;;;5045864;28;20627;-88
2024/02/14 11:13:14;;;;;;;1.90;1.40;;;11.80;99.90;;;;;;5038752;28;20626;-89
2024/02/14 11:15:46;;;;;;;1.20;1.10;;;11.60;97.20;;;;;;5047069;28;20933;-88
2024/02/14 11:18:13;;;;;;;1.13;1.03;;;;;;;;;;5046831;28;20645;-89
2024/02/14 11:20:46;;;;;;;3.63;2.43;;;11.60;97.10;;;;;;5047145;28;20652;-88
2024/02/14 11:23:13;;;;;;;1.47;0.90;;;;;;;;;;5046721;28;20634;-88
2024/02/14 11:25:40;;;;;;;0.90;0.90;;;;;;;;;;5049329;28;20636;-88
2024/02/14 11:28:17;;;;;;;0.97;0.87;;;11.60;97.60;;;;;;5051276;28;20646;-88
2024/02/14 11:30:45;;;;;;;1.40;1.40;;;11.30;99.90;;;;;;5045255;28;20697;-80
2024/02/14 11:33:15;;;;;;;2.50;1.07;;;11.50;99.90;;;;;;5045976;28;21290;-79
2024/02/14 11:35:42;;;;;;;3.30;1.20;;;11.20;99.90;;;;;;5045282;28;20633;-82
2024/02/14 11:38:10;;;;;;;5.80;1.37;;;11.60;97.50;;;;;;5048810;28;20627;-77
2024/02/14 11:40:38;;;;;;;1.80;1.10;;;11.80;97.80;;;;;;5043347;28;20636;-80
2024/02/14 11:43:05;;;;;;;2.47;1.10;;;11.90;97.60;;;;;;5049844;28;20642;-81
2024/02/14 11:45:32;;;;;;;1.17;1.07;;;11.90;97.70;;;;;;5050162;28;20622;-80
2024/02/14 11:48:01;;;;;;;3.03;2.30;;;11.90;97.50;;;;;;5050712;28;20635;-81
2024/02/14 11:50:28;;;;;;;1.40;1.30;;;11.90;99.90;;;;;;5046297;28;20999;-78
2024/02/14 11:52:55;;;;;;;0.80;0.60;;;11.90;97.50;;;;;;5046473;28;20670;-79
2024/02/14 11:55:29;;;;;;;2.60;0.80;;;11.90;97.30;;;;;;5045487;28;20648;-78
2024/02/14 11:57:56;;;;;;;0.97;0.90;;;12.00;97.50;;;;;;5043522;28;20621;-75
2024/02/14 12:00:23;;;;;;;1.67;1.10;;;12.10;97.20;;;;;;5043521;28;21207;-76
2024/02/14 12:02:51;;;;;;;1.30;1.20;;;12.20;97.50;;;;;;5042230;28;21246;-79
2024/02/14 12:05:19;;;;;;;0.77;0.70;;;12.20;97.30;;;;;;5044278;28;20640;-81
2024/02/14 12:07:47;;;;;;;0.80;0.70;;;12.30;97.30;;;;;;5044040;28;20655;-75
2024/02/14 12:10:14;;;;;;;0.90;0.90;;;12.30;97.20;;;;;;5044088;28;20661;-75
2024/02/14 12:12:41;;;;;;;1.00;0.90;;;12.30;97.20;;;;;;5045205;28;20671;-75
2024/02/14 12:15:11;;;;;;;1.70;1.00;;;12.30;96.90;;;;;;5046521;28;20644;-83
2024/02/14 12:17:38;;;;;;;1.20;1.10;;;12.30;97.10;;;;;;5046003;28;20616;-84
2024/02/14 12:20:10;;;;;;;1.90;1.03;;;12.30;96.70;;;;;;5043207;28;21073;-73
2024/02/14 12:22:38;;;;;;;0.80;0.77;;;12.30;97.30;;;;;;5039124;28;20988;-76
2024/02/14 12:25:07;;;;;;;1.30;0.70;;;12.40;97.10;;;;;;5043733;28;20618;-76
2024/02/14 12:27:34;;;;;;;1.30;0.90;;;12.30;97.30;;;;;;5047586;28;20641;-75
2024/02/14 12:30:05;;;;;;;0.77;0.60;;;12.40;99.90;;;;;;5045967;28;20632;-77
2024/02/14 12:32:31;;;;;;;1.87;0.87;;;12.30;97.20;;;;;;5045291;28;20663;-78
2024/02/14 12:34:59;;;;;;;0.90;0.60;;;12.40;96.90;;;;;;5046641;28;20637;-77
2024/02/14 12:37:26;;;;;;;0.80;0.80;;;12.00;99.90;;;;;;5047819;28;20735;-77
2024/02/14 12:39:55;;;;;;;0.70;0.70;;;12.30;97.00;;;;;;5046928;28;21040;-80
2024/02/14 12:42:25;;;;;;;1.00;0.90;;;12.30;97.20;;;;;;5049706;28;20647;-79
2024/02/14 12:44:53;;;;;;;0.63;0.50;;;12.40;97.70;;;;;;5042321;28;20678;-80
2024/02/14 12:47:21;;;;;;;1.00;0.83;;;12.50;97.30;;;;;;5038518;28;20636;-78
2024/02/14 12:49:49;;;;;;;1.00;1.00;;;12.40;99.90;;;;;;5045951;28;20738;-74
2024/02/14 12:52:16;;;;;;;0.80;0.73;;;12.40;96.80;;;;;;5046139;28;20675;-77
2024/02/14 12:54:43;;;;;;;1.00;1.00;;;12.40;96.60;;;;;;5043353;28;21201;-79
2024/02/14 12:57:11;;;;;;;4.80;3.37;;;12.50;96.90;;;;;;5035863;28;20726;-78
2024/02/14 12:59:38;;;;;;;1.97;1.77;;;12.70;97.00;;;;;;5046866;28;20649;-78